sensor_id;sensor_type;location;lat;lon;timestamp;pressure;altitude;pressure_sealevel;temperature;humidity
78223;BME280;67497;53.058;21.618;2024-01-11T00:00:00;101079.69;;;-3.54;93.55
78223;BME280;67497;53.058;21.618;2024-01-11T00:02:01;101087.50;;;-3.46;93.77
78223;BME280;67497;53.058;21.618;2024-01-11T00:04:01;101076.66;;;-3.42;93.31
78223;BME280;67497;53.058;21.618;2024-01-11T00:06:02;101048.41;;;-3.52;93.59
78223;BME280;67497;53.058;21.618;2024-01-11T00:08:04;101061.59;;;-3.46;92.98
78223;BME280;67497;53.058;21.618;2024-01-11T00:10:05;101050.53;;;-3.63;93.34
78223;BME280;67497;53.058;21.618;2024-01-11T00:12:05;101069.84;;;-3.53;93.63
78223;BME280;67497;53.058;21.618;2024-01-11T00:14:06;101056.28;;;-3.47;93.64
78223;BME280;67497;53.058;21.618;2024-01-11T00:16:06;101073.19;;;-3.45;93.03
78223;BME280;67497;53.058;21.618;2024-01-11T00:18:07;101070.66;;;-3.50;92.84
78223;BME280;67497;53.058;21.618;2024-01-11T00:20:07;101065.44;;;-3.54;93.16
78223;BME280;67497;53.058;21.618;2024-01-11T00:22:08;101074.38;;;-3.55;93.35
78223;BME280;67497;53.058;21.618;2024-01-11T00:24:08;101081.53;;;-3.56;93.30
78223;BME280;67497;53.058;21.618;2024-01-11T00:26:12;101105.63;;;-3.56;93.45
78223;BME280;67497;53.058;21.618;2024-01-11T00:28:12;101093.28;;;-3.60;93.35
78223;BME280;67497;53.058;21.618;2024-01-11T00:30:13;101055.81;;;-3.62;92.98
78223;BME280;67497;53.058;21.618;2024-01-11T00:32:13;101070.91;;;-3.59;92.86
78223;BME280;67497;53.058;21.618;2024-01-11T00:34:13;101082.59;;;-3.62;92.90
78223;BME280;67497;53.058;21.618;2024-01-11T00:36:18;101100.59;;;-3.65;93.06
78223;BME280;67497;53.058;21.618;2024-01-11T00:38:20;101099.78;;;-3.69;93.40
78223;BME280;67497;53.058;21.618;2024-01-11T00:40:20;101113.84;;;-3.62;93.45
78223;BME280;67497;53.058;21.618;2024-01-11T00:42:20;101120.13;;;-3.63;93.35
78223;BME280;67497;53.058;21.618;2024-01-11T00:44:21;101100.84;;;-3.74;93.31
78223;BME280;67497;53.058;21.618;2024-01-11T00:46:21;101097.41;;;-3.79;93.89
78223;BME280;67497;53.058;21.618;2024-01-11T00:48:22;101099.94;;;-3.73;93.68
78223;BME280;67497;53.058;21.618;2024-01-11T00:50:22;101108.59;;;-3.65;93.76
78223;BME280;67497;53.058;21.618;2024-01-11T00:52:22;101106.09;;;-3.71;93.55
78223;BME280;67497;53.058;21.618;2024-01-11T00:54:23;101109.44;;;-3.63;93.29
78223;BME280;67497;53.058;21.618;2024-01-11T00:56:24;101089.09;;;-3.70;93.07
78223;BME280;67497;53.058;21.618;2024-01-11T00:58:25;101087.53;;;-3.77;93.10
78223;BME280;67497;53.058;21.618;2024-01-11T01:00:25;101105.06;;;-3.67;93.66
78223;BME280;67497;53.058;21.618;2024-01-11T01:02:26;101080.97;;;-3.67;93.48
78223;BME280;67497;53.058;21.618;2024-01-11T01:04:26;101078.19;;;-3.63;93.73
78223;BME280;67497;53.058;21.618;2024-01-11T01:06:27;101066.59;;;-3.63;93.34
78223;BME280;67497;53.058;21.618;2024-01-11T01:08:27;101057.91;;;-3.71;92.88
78223;BME280;67497;53.058;21.618;2024-01-11T01:10:27;101067.59;;;-3.67;93.20
78223;BME280;67497;53.058;21.618;2024-01-11T01:12:28;101045.59;;;-3.77;93.36
78223;BME280;67497;53.058;21.618;2024-01-11T01:14:28;101072.06;;;-3.68;93.34
78223;BME280;67497;53.058;21.618;2024-01-11T01:16:29;101076.66;;;-3.71;93.29
78223;BME280;67497;53.058;21.618;2024-01-11T01:18:29;101077.16;;;-3.58;93.26
78223;BME280;67497;53.058;21.618;2024-01-11T01:20:29;101073.81;;;-3.65;92.81
78223;BME280;67497;53.058;21.618;2024-01-11T01:22:30;101079.25;;;-3.68;93.06
78223;BME280;67497;53.058;21.618;2024-01-11T01:24:30;101082.91;;;-3.72;93.41
78223;BME280;67497;53.058;21.618;2024-01-11T01:26:31;101072.13;;;-3.69;92.94
78223;BME280;67497;53.058;21.618;2024-01-11T01:28:31;101068.44;;;-3.65;93.24
78223;BME280;67497;53.058;21.618;2024-01-11T01:30:32;101056.88;;;-3.66;92.95
78223;BME280;67497;53.058;21.618;2024-01-11T01:32:32;101069.13;;;-3.58;93.43
78223;BME280;67497;53.058;21.618;2024-01-11T01:34:33;101053.13;;;-3.60;93.01
78223;BME280;67497;53.058;21.618;2024-01-11T01:36:33;101047.03;;;-3.65;92.87
78223;BME280;67497;53.058;21.618;2024-01-11T01:38:33;101038.06;;;-3.64;93.03
78223;BME280;67497;53.058;21.618;2024-01-11T01:40:34;101042.25;;;-3.55;93.49
78223;BME280;67497;53.058;21.618;2024-01-11T01:42:34;101025.47;;;-3.60;93.02
78223;BME280;67497;53.058;21.618;2024-01-11T01:44:34;101022.06;;;-3.66;93.27
78223;BME280;67497;53.058;21.618;2024-01-11T01:46:35;101036.03;;;-3.56;93.34
78223;BME280;67497;53.058;21.618;2024-01-11T01:48:36;101012.31;;;-3.68;92.67
78223;BME280;67497;53.058;21.618;2024-01-11T01:50:36;101026.38;;;-3.62;93.14
78223;BME280;67497;53.058;21.618;2024-01-11T01:52:39;101023.66;;;-3.60;93.68
78223;BME280;67497;53.058;21.618;2024-01-11T01:54:40;101035.19;;;-3.58;92.84
78223;BME280;67497;53.058;21.618;2024-01-11T01:56:40;101045.09;;;-3.60;93.30
78223;BME280;67497;53.058;21.618;2024-01-11T01:58:42;101014.38;;;-3.76;93.28
78223;BME280;67497;53.058;21.618;2024-01-11T02:00:44;101014.06;;;-3.67;93.28
78223;BME280;67497;53.058;21.618;2024-01-11T02:02:46;101031.56;;;-3.55;93.06
78223;BME280;67497;53.058;21.618;2024-01-11T02:04:50;101015.53;;;-3.57;93.10
78223;BME280;67497;53.058;21.618;2024-01-11T02:06:51;101001.28;;;-3.57;93.58
78223;BME280;67497;53.058;21.618;2024-01-11T02:08:54;101001.22;;;-3.56;93.43
78223;BME280;67497;53.058;21.618;2024-01-11T02:10:56;100991.38;;;-3.55;92.75
78223;BME280;67497;53.058;21.618;2024-01-11T02:12:58;100985.31;;;-3.60;92.88
78223;BME280;67497;53.058;21.618;2024-01-11T02:14:59;101000.31;;;-3.55;93.04
78223;BME280;67497;53.058;21.618;2024-01-11T02:17:00;100991.28;;;-3.52;93.46
78223;BME280;67497;53.058;21.618;2024-01-11T02:19:04;100995.13;;;-3.61;93.11
78223;BME280;67497;53.058;21.618;2024-01-11T02:21:07;100995.94;;;-3.57;93.46
78223;BME280;67497;53.058;21.618;2024-01-11T02:23:13;100995.88;;;-3.56;94.10
78223;BME280;67497;53.058;21.618;2024-01-11T02:25:15;100978.00;;;-3.55;93.97
78223;BME280;67497;53.058;21.618;2024-01-11T02:27:15;100978.78;;;-3.52;93.40
78223;BME280;67497;53.058;21.618;2024-01-11T02:29:15;100953.97;;;-3.57;93.74
78223;BME280;67497;53.058;21.618;2024-01-11T02:31:16;100970.66;;;-3.49;93.52
78223;BME280;67497;53.058;21.618;2024-01-11T02:33:16;100957.38;;;-3.52;93.10
78223;BME280;67497;53.058;21.618;2024-01-11T02:35:19;100954.34;;;-3.41;93.26
78223;BME280;67497;53.058;21.618;2024-01-11T02:37:19;100942.94;;;-3.48;93.23
78223;BME280;67497;53.058;21.618;2024-01-11T02:39:20;100944.78;;;-3.50;92.95
78223;BME280;67497;53.058;21.618;2024-01-11T02:41:23;100944.59;;;-3.44;93.32
78223;BME280;67497;53.058;21.618;2024-01-11T02:43:23;100924.19;;;-3.48;93.03
78223;BME280;67497;53.058;21.618;2024-01-11T02:45:24;100926.88;;;-3.48;93.18
78223;BME280;67497;53.058;21.618;2024-01-11T02:47:24;100939.16;;;-3.41;93.09
78223;BME280;67497;53.058;21.618;2024-01-11T02:49:25;100931.88;;;-3.37;92.66
78223;BME280;67497;53.058;21.618;2024-01-11T02:51:25;100928.63;;;-3.47;93.33
78223;BME280;67497;53.058;21.618;2024-01-11T02:53:25;100924.38;;;-3.54;93.24
78223;BME280;67497;53.058;21.618;2024-01-11T02:55:26;100935.53;;;-3.40;93.58
78223;BME280;67497;53.058;21.618;2024-01-11T02:57:26;100935.59;;;-3.41;93.08
78223;BME280;67497;53.058;21.618;2024-01-11T02:59:26;100938.19;;;-3.40;93.54
78223;BME280;67497;53.058;21.618;2024-01-11T03:01:27;100930.16;;;-3.40;93.67
78223;BME280;67497;53.058;21.618;2024-01-11T03:03:27;100923.53;;;-3.28;92.84
78223;BME280;67497;53.058;21.618;2024-01-11T03:05:28;100932.66;;;-3.34;93.23
78223;BME280;67497;53.058;21.618;2024-01-11T03:07:28;100926.38;;;-3.33;93.28
78223;BME280;67497;53.058;21.618;2024-01-11T03:09:30;100932.59;;;-3.32;93.04
78223;BME280;67497;53.058;21.618;2024-01-11T03:11:30;100936.25;;;-3.35;92.95
78223;BME280;67497;53.058;21.618;2024-01-11T03:13:31;100945.13;;;-3.33;93.35
78223;BME280;67497;53.058;21.618;2024-01-11T03:15:31;100950.63;;;-3.37;93.09
78223;BME280;67497;53.058;21.618;2024-01-11T03:17:32;100932.56;;;-3.31;93.85
78223;BME280;67497;53.058;21.618;2024-01-11T03:19:33;100932.59;;;-3.32;93.63
78223;BME280;67497;53.058;21.618;2024-01-11T03:21:33;100915.06;;;-3.41;93.36
78223;BME280;67497;53.058;21.618;2024-01-11T03:23:33;100911.31;;;-3.37;93.30
78223;BME280;67497;53.058;21.618;2024-01-11T03:25:34;100891.56;;;-3.33;93.78
78223;BME280;67497;53.058;21.618;2024-01-11T03:27:34;100895.69;;;-3.24;93.88
78223;BME280;67497;53.058;21.618;2024-01-11T03:29:34;100900.25;;;-3.26;92.91
78223;BME280;67497;53.058;21.618;2024-01-11T03:31:35;100891.31;;;-3.27;94.02
78223;BME280;67497;53.058;21.618;2024-01-11T03:33:35;100896.69;;;-3.27;93.80
78223;BME280;67497;53.058;21.618;2024-01-11T03:35:36;100871.16;;;-3.37;93.42
78223;BME280;67497;53.058;21.618;2024-01-11T03:37:38;100891.28;;;-3.25;93.80
78223;BME280;67497;53.058;21.618;2024-01-11T03:39:39;100888.53;;;-3.24;94.27
78223;BME280;67497;53.058;21.618;2024-01-11T03:41:45;100886.81;;;-3.25;94.01
78223;BME280;67497;53.058;21.618;2024-01-11T03:43:45;100880.69;;;-3.28;93.92
78223;BME280;67497;53.058;21.618;2024-01-11T03:45:46;100879.38;;;-3.17;94.50
78223;BME280;67497;53.058;21.618;2024-01-11T03:47:46;100881.78;;;-3.09;93.81
78223;BME280;67497;53.058;21.618;2024-01-11T03:49:47;100878.41;;;-3.14;93.65
78223;BME280;67497;53.058;21.618;2024-01-11T03:51:47;100859.69;;;-3.16;93.59
78223;BME280;67497;53.058;21.618;2024-01-11T03:53:48;100873.91;;;-3.14;93.34
78223;BME280;67497;53.058;21.618;2024-01-11T03:55:48;100853.41;;;-3.15;94.07
78223;BME280;67497;53.058;21.618;2024-01-11T03:57:48;100849.03;;;-3.17;93.91
78223;BME280;67497;53.058;21.618;2024-01-11T03:59:49;100838.53;;;-3.23;93.73
78223;BME280;67497;53.058;21.618;2024-01-11T04:01:49;100861.88;;;-3.02;93.67
78223;BME280;67497;53.058;21.618;2024-01-11T04:03:49;100842.47;;;-3.09;93.65
78223;BME280;67497;53.058;21.618;2024-01-11T04:05:51;100851.53;;;-3.13;93.71
78223;BME280;67497;53.058;21.618;2024-01-11T04:07:51;100854.22;;;-3.13;93.68
78223;BME280;67497;53.058;21.618;2024-01-11T04:09:51;100847.00;;;-3.11;94.46
78223;BME280;67497;53.058;21.618;2024-01-11T04:11:52;100839.78;;;-3.09;93.78
78223;BME280;67497;53.058;21.618;2024-01-11T04:13:52;100834.53;;;-3.12;94.01
78223;BME280;67497;53.058;21.618;2024-01-11T04:15:52;100850.50;;;-3.09;94.46
78223;BME280;67497;53.058;21.618;2024-01-11T04:17:53;100836.28;;;-3.11;94.17
78223;BME280;67497;53.058;21.618;2024-01-11T04:19:53;100818.63;;;-3.16;94.59
78223;BME280;67497;53.058;21.618;2024-01-11T04:21:53;100815.00;;;-3.15;94.24
78223;BME280;67497;53.058;21.618;2024-01-11T04:23:54;100819.22;;;-3.08;94.41
78223;BME280;67497;53.058;21.618;2024-01-11T04:25:55;100824.63;;;-3.10;93.83
78223;BME280;67497;53.058;21.618;2024-01-11T04:27:55;100821.19;;;-3.13;94.25
78223;BME280;67497;53.058;21.618;2024-01-11T04:29:56;100820.88;;;-3.04;94.08
78223;BME280;67497;53.058;21.618;2024-01-11T04:31:56;100811.94;;;-3.05;94.36
78223;BME280;67497;53.058;21.618;2024-01-11T04:33:56;100808.50;;;-3.08;94.23
78223;BME280;67497;53.058;21.618;2024-01-11T04:35:57;100786.53;;;-3.18;93.74
78223;BME280;67497;53.058;21.618;2024-01-11T04:37:57;100806.00;;;-3.13;93.98
78223;BME280;67497;53.058;21.618;2024-01-11T04:39:57;100800.53;;;-3.10;94.52
78223;BME280;67497;53.058;21.618;2024-01-11T04:42:00;100794.28;;;-3.10;94.02
78223;BME280;67497;53.058;21.618;2024-01-11T04:44:03;100809.03;;;-2.98;94.33
78223;BME280;67497;53.058;21.618;2024-01-11T04:46:15;100794.25;;;-3.09;93.98
78223;BME280;67497;53.058;21.618;2024-01-11T04:48:15;100802.03;;;-3.03;93.76
78223;BME280;67497;53.058;21.618;2024-01-11T04:50:16;100801.03;;;-3.00;94.26
78223;BME280;67497;53.058;21.618;2024-01-11T04:52:16;100801.00;;;-2.98;94.07
78223;BME280;67497;53.058;21.618;2024-01-11T04:54:17;100788.78;;;-3.06;93.50
78223;BME280;67497;53.058;21.618;2024-01-11T04:56:17;100796.69;;;-3.03;93.87
78223;BME280;67497;53.058;21.618;2024-01-11T04:58:17;100803.69;;;-2.98;94.95
78223;BME280;67497;53.058;21.618;2024-01-11T05:00:18;100787.59;;;-2.98;94.71
78223;BME280;67497;53.058;21.618;2024-01-11T05:02:21;100779.47;;;-2.95;94.21
78223;BME280;67497;53.058;21.618;2024-01-11T05:04:22;100792.50;;;-2.86;94.03
78223;BME280;67497;53.058;21.618;2024-01-11T05:06:22;100773.03;;;-2.91;94.21
78223;BME280;67497;53.058;21.618;2024-01-11T05:08:23;100787.19;;;-2.88;94.65
78223;BME280;67497;53.058;21.618;2024-01-11T05:10:23;100773.81;;;-2.88;94.23
78223;BME280;67497;53.058;21.618;2024-01-11T05:12:24;100787.91;;;-2.83;93.76
78223;BME280;67497;53.058;21.618;2024-01-11T05:14:24;100778.75;;;-2.77;94.61
78223;BME280;67497;53.058;21.618;2024-01-11T05:16:27;100769.22;;;-2.84;94.70
78223;BME280;67497;53.058;21.618;2024-01-11T05:18:28;100760.09;;;-2.80;94.43
78223;BME280;67497;53.058;21.618;2024-01-11T05:20:28;100724.09;;;-2.96;94.32
78223;BME280;67497;53.058;21.618;2024-01-11T05:22:29;100745.69;;;-2.78;94.80
78223;BME280;67497;53.058;21.618;2024-01-11T05:24:30;100742.41;;;-2.84;94.94
78223;BME280;67497;53.058;21.618;2024-01-11T05:26:31;100758.22;;;-2.78;94.43
78223;BME280;67497;53.058;21.618;2024-01-11T05:28:31;100758.88;;;-2.72;94.89
78223;BME280;67497;53.058;21.618;2024-01-11T05:30:33;100741.34;;;-2.80;94.32
78223;BME280;67497;53.058;21.618;2024-01-11T05:32:33;100744.78;;;-2.77;94.40
78223;BME280;67497;53.058;21.618;2024-01-11T05:34:33;100747.28;;;-2.72;94.06
78223;BME280;67497;53.058;21.618;2024-01-11T05:36:34;100751.63;;;-2.70;94.49
78223;BME280;67497;53.058;21.618;2024-01-11T05:38:35;100746.34;;;-2.71;94.56
78223;BME280;67497;53.058;21.618;2024-01-11T05:40:35;100742.69;;;-2.69;94.66
78223;BME280;67497;53.058;21.618;2024-01-11T05:42:36;100733.41;;;-2.60;94.60
78223;BME280;67497;53.058;21.618;2024-01-11T05:44:37;100740.47;;;-2.59;94.55
78223;BME280;67497;53.058;21.618;2024-01-11T05:46:37;100732.63;;;-2.64;94.84
78223;BME280;67497;53.058;21.618;2024-01-11T05:48:38;100733.44;;;-2.62;94.52
78223;BME280;67497;53.058;21.618;2024-01-11T05:50:38;100723.72;;;-2.64;94.12
78223;BME280;67497;53.058;21.618;2024-01-11T05:52:38;100715.66;;;-2.64;94.87
78223;BME280;67497;53.058;21.618;2024-01-11T05:54:39;100720.88;;;-2.60;94.88
78223;BME280;67497;53.058;21.618;2024-01-11T05:56:39;100716.34;;;-2.59;94.94
78223;BME280;67497;53.058;21.618;2024-01-11T05:58:40;100709.94;;;-2.55;94.92
78223;BME280;67497;53.058;21.618;2024-01-11T06:00:40;100705.63;;;-2.59;94.58
78223;BME280;67497;53.058;21.618;2024-01-11T06:02:42;100700.97;;;-2.54;95.00
78223;BME280;67497;53.058;21.618;2024-01-11T06:04:42;100718.00;;;-2.55;95.16
78223;BME280;67497;53.058;21.618;2024-01-11T06:06:42;100709.16;;;-2.57;95.04
78223;BME280;67497;53.058;21.618;2024-01-11T06:08:53;100714.13;;;-2.48;94.51
78223;BME280;67497;53.058;21.618;2024-01-11T06:11:11;100714.44;;;-2.56;94.38
78223;BME280;67497;53.058;21.618;2024-01-11T06:13:12;100711.72;;;-2.54;95.19
78223;BME280;67497;53.058;21.618;2024-01-11T06:15:12;100708.03;;;-2.52;95.12
78223;BME280;67497;53.058;21.618;2024-01-11T06:17:12;100723.13;;;-2.49;94.62
78223;BME280;67497;53.058;21.618;2024-01-11T06:19:13;100712.13;;;-2.43;94.33
78223;BME280;67497;53.058;21.618;2024-01-11T06:21:13;100709.31;;;-2.40;94.92
78223;BME280;67497;53.058;21.618;2024-01-11T06:23:15;100706.94;;;-2.48;94.79
78223;BME280;67497;53.058;21.618;2024-01-11T06:25:17;100718.19;;;-2.38;94.74
78223;BME280;67497;53.058;21.618;2024-01-11T06:27:18;100707.63;;;-2.43;94.71
78223;BME280;67497;53.058;21.618;2024-01-11T06:29:18;100699.09;;;-2.52;94.87
78223;BME280;67497;53.058;21.618;2024-01-11T06:31:18;100699.22;;;-2.55;94.00
78223;BME280;67497;53.058;21.618;2024-01-11T06:33:19;100691.06;;;-2.52;94.65
78223;BME280;67497;53.058;21.618;2024-01-11T06:35:20;100705.19;;;-2.49;94.42
78223;BME280;67497;53.058;21.618;2024-01-11T06:37:21;100683.94;;;-2.53;94.25
78223;BME280;67497;53.058;21.618;2024-01-11T06:39:22;100700.38;;;-2.41;94.39
78223;BME280;67497;53.058;21.618;2024-01-11T06:41:22;100702.91;;;-2.36;93.87
78223;BME280;67497;53.058;21.618;2024-01-11T06:43:23;100686.94;;;-2.39;94.10
78223;BME280;67497;53.058;21.618;2024-01-11T06:45:23;100687.13;;;-2.44;94.57
78223;BME280;67497;53.058;21.618;2024-01-11T06:47:23;100691.72;;;-2.47;94.67
78223;BME280;67497;53.058;21.618;2024-01-11T06:49:24;100686.28;;;-2.46;94.07
78223;BME280;67497;53.058;21.618;2024-01-11T06:51:24;100684.13;;;-2.58;94.04
78223;BME280;67497;53.058;21.618;2024-01-11T06:53:25;100697.97;;;-2.47;94.75
78223;BME280;67497;53.058;21.618;2024-01-11T06:55:25;100693.63;;;-2.49;94.45
78223;BME280;67497;53.058;21.618;2024-01-11T06:57:25;100698.91;;;-2.48;94.35
78223;BME280;67497;53.058;21.618;2024-01-11T06:59:26;100704.16;;;-2.45;94.80
78223;BME280;67497;53.058;21.618;2024-01-11T07:01:26;100702.09;;;-2.38;94.41
78223;BME280;67497;53.058;21.618;2024-01-11T07:03:26;100691.50;;;-2.41;94.08
78223;BME280;67497;53.058;21.618;2024-01-11T07:05:27;100692.94;;;-2.54;94.22
78223;BME280;67497;53.058;21.618;2024-01-11T07:07:29;100715.50;;;-2.38;94.52
78223;BME280;67497;53.058;21.618;2024-01-11T07:09:29;100708.28;;;-2.36;94.24
78223;BME280;67497;53.058;21.618;2024-01-11T07:11:30;100703.78;;;-2.35;94.74
78223;BME280;67497;53.058;21.618;2024-01-11T07:13:31;100704.03;;;-2.42;94.24
78223;BME280;67497;53.058;21.618;2024-01-11T07:15:31;100698.03;;;-2.48;94.52
78223;BME280;67497;53.058;21.618;2024-01-11T07:17:32;100712.84;;;-2.38;94.21
78223;BME280;67497;53.058;21.618;2024-01-11T07:19:32;100710.00;;;-2.35;94.93
78223;BME280;67497;53.058;21.618;2024-01-11T07:21:33;100714.22;;;-2.29;94.13
78223;BME280;67497;53.058;21.618;2024-01-11T07:23:33;100719.44;;;-2.25;94.22
78223;BME280;67497;53.058;21.618;2024-01-11T07:25:33;100709.63;;;-2.26;94.29
78223;BME280;67497;53.058;21.618;2024-01-11T07:27:34;100708.94;;;-2.31;93.98
78223;BME280;67497;53.058;21.618;2024-01-11T07:29:36;100709.16;;;-2.35;94.15
78223;BME280;67497;53.058;21.618;2024-01-11T07:31:36;100706.25;;;-2.31;94.36
78223;BME280;67497;53.058;21.618;2024-01-11T07:33:36;100699.13;;;-2.32;93.92
78223;BME280;67497;53.058;21.618;2024-01-11T07:35:37;100712.31;;;-2.26;94.26
78223;BME280;67497;53.058;21.618;2024-01-11T07:37:37;100700.91;;;-2.31;94.11
78223;BME280;67497;53.058;21.618;2024-01-11T07:39:37;100697.13;;;-2.27;94.92
78223;BME280;67497;53.058;21.618;2024-01-11T07:41:38;100705.91;;;-2.22;94.80
78223;BME280;67497;53.058;21.618;2024-01-11T07:43:38;100694.88;;;-2.16;94.27
78223;BME280;67497;53.058;21.618;2024-01-11T07:45:39;100684.44;;;-2.22;94.48
78223;BME280;67497;53.058;21.618;2024-01-11T07:47:39;100695.63;;;-2.12;93.96
78223;BME280;67497;53.058;21.618;2024-01-11T07:49:40;100701.88;;;-2.12;94.80
78223;BME280;67497;53.058;21.618;2024-01-11T07:51:40;100707.13;;;-2.09;93.99
78223;BME280;67497;53.058;21.618;2024-01-11T07:53:40;100683.56;;;-2.22;94.24
78223;BME280;67497;53.058;21.618;2024-01-11T07:55:41;100695.38;;;-2.06;93.76
78223;BME280;67497;53.058;21.618;2024-01-11T07:57:41;100697.72;;;-1.99;94.47
78223;BME280;67497;53.058;21.618;2024-01-11T07:59:42;100685.53;;;-2.06;94.12
78223;BME280;67497;53.058;21.618;2024-01-11T08:01:42;100695.19;;;-2.02;94.50
78223;BME280;67497;53.058;21.618;2024-01-11T08:03:43;100680.28;;;-2.09;94.29
78223;BME280;67497;53.058;21.618;2024-01-11T08:05:45;100689.75;;;-2.00;94.27
78223;BME280;67497;53.058;21.618;2024-01-11T08:07:46;100687.63;;;-1.92;94.08
78223;BME280;67497;53.058;21.618;2024-01-11T08:09:46;100696.38;;;-1.89;94.16
78223;BME280;67497;53.058;21.618;2024-01-11T08:11:46;100701.75;;;-1.89;94.25
78223;BME280;67497;53.058;21.618;2024-01-11T08:13:47;100701.88;;;-1.92;93.99
78223;BME280;67497;53.058;21.618;2024-01-11T08:15:47;100698.81;;;-1.83;94.29
78223;BME280;67497;53.058;21.618;2024-01-11T08:17:48;100698.69;;;-1.79;94.27
78223;BME280;67497;53.058;21.618;2024-01-11T08:19:48;100697.00;;;-1.82;93.73
78223;BME280;67497;53.058;21.618;2024-01-11T08:21:49;100692.44;;;-1.80;94.20
78223;BME280;67497;53.058;21.618;2024-01-11T08:23:49;100679.09;;;-1.82;93.84
78223;BME280;67497;53.058;21.618;2024-01-11T08:25:49;100679.88;;;-1.79;93.22
78223;BME280;67497;53.058;21.618;2024-01-11T08:27:50;100684.03;;;-1.72;93.50
78223;BME280;67497;53.058;21.618;2024-01-11T08:29:50;100685.53;;;-1.65;93.61
78223;BME280;67497;53.058;21.618;2024-01-11T08:31:50;100695.41;;;-1.66;92.90
78223;BME280;67497;53.058;21.618;2024-01-11T08:33:51;100685.53;;;-1.65;93.25
78223;BME280;67497;53.058;21.618;2024-01-11T08:35:51;100688.41;;;-1.70;93.49
78223;BME280;67497;53.058;21.618;2024-01-11T08:37:52;100703.47;;;-1.66;93.73
78223;BME280;67497;53.058;21.618;2024-01-11T08:39:52;100688.13;;;-1.64;93.38
78223;BME280;67497;53.058;21.618;2024-01-11T08:41:53;100701.84;;;-1.50;93.15
78223;BME280;67497;53.058;21.618;2024-01-11T08:43:53;100692.41;;;-1.40;93.64
78223;BME280;67497;53.058;21.618;2024-01-11T08:45:53;100687.78;;;-1.36;93.26
78223;BME280;67497;53.058;21.618;2024-01-11T08:47:56;100683.16;;;-1.33;92.63
78223;BME280;67497;53.058;21.618;2024-01-11T08:49:56;100668.41;;;-1.24;92.58
78223;BME280;67497;53.058;21.618;2024-01-11T08:51:57;100665.28;;;-1.15;92.68
78223;BME280;67497;53.058;21.618;2024-01-11T08:53:57;100683.81;;;-1.09;92.07
78223;BME280;67497;53.058;21.618;2024-01-11T08:55:58;100676.28;;;-1.01;92.67
78223;BME280;67497;53.058;21.618;2024-01-11T08:57:58;100664.94;;;-1.07;92.00
78223;BME280;67497;53.058;21.618;2024-01-11T08:59:59;100654.41;;;-1.12;91.98
78223;BME280;67497;53.058;21.618;2024-01-11T09:01:59;100670.75;;;-0.98;92.06
78223;BME280;67497;53.058;21.618;2024-01-11T09:03:59;100668.06;;;-0.98;92.59
78223;BME280;67497;53.058;21.618;2024-01-11T09:06:00;100666.44;;;-1.02;92.33
78223;BME280;67497;53.058;21.618;2024-01-11T09:08:00;100681.88;;;-0.87;92.97
78223;BME280;67497;53.058;21.618;2024-01-11T09:10:02;100666.16;;;-0.96;92.45
78223;BME280;67497;53.058;21.618;2024-01-11T09:12:03;100674.50;;;-0.83;92.74
78223;BME280;67497;53.058;21.618;2024-01-11T09:14:03;100668.25;;;-0.84;93.17
78223;BME280;67497;53.058;21.618;2024-01-11T09:16:04;100662.09;;;-0.86;93.42
78223;BME280;67497;53.058;21.618;2024-01-11T09:18:04;100677.50;;;-0.71;93.02
78223;BME280;67497;53.058;21.618;2024-01-11T09:20:05;100681.78;;;-0.67;93.46
78223;BME280;67497;53.058;21.618;2024-01-11T09:22:05;100683.59;;;-0.67;93.31
78223;BME280;67497;53.058;21.618;2024-01-11T09:24:06;100666.91;;;-0.74;93.48
78223;BME280;67497;53.058;21.618;2024-01-11T09:26:06;100682.13;;;-0.55;93.61
78223;BME280;67497;53.058;21.618;2024-01-11T09:28:07;100671.38;;;-0.55;93.12
78223;BME280;67497;53.058;21.618;2024-01-11T09:30:08;100673.81;;;-0.51;93.30
78223;BME280;67497;53.058;21.618;2024-01-11T09:32:09;100657.03;;;-0.56;93.18
78223;BME280;67497;53.058;21.618;2024-01-11T09:34:09;100661.00;;;-0.46;93.44
78223;BME280;67497;53.058;21.618;2024-01-11T09:36:09;100667.13;;;-0.42;93.66
78223;BME280;67497;53.058;21.618;2024-01-11T09:38:10;100657.97;;;-0.38;93.24
78223;BME280;67497;53.058;21.618;2024-01-11T09:40:11;100649.91;;;-0.38;93.05
78223;BME280;67497;53.058;21.618;2024-01-11T09:42:11;100664.78;;;-0.31;92.79
78223;BME280;67497;53.058;21.618;2024-01-11T09:44:13;100666.44;;;-0.29;92.54
78223;BME280;67497;53.058;21.618;2024-01-11T09:46:13;100660.19;;;-0.29;92.48
78223;BME280;67497;53.058;21.618;2024-01-11T09:48:15;100667.16;;;-0.25;92.55
78223;BME280;67497;53.058;21.618;2024-01-11T09:50:17;100660.81;;;-0.24;92.41
78223;BME280;67497;53.058;21.618;2024-01-11T09:52:19;100645.00;;;-0.30;92.44
78223;BME280;67497;53.058;21.618;2024-01-11T09:54:20;100639.38;;;-0.26;92.65
78223;BME280;67497;53.058;21.618;2024-01-11T09:56:21;100642.78;;;-0.22;92.26
78223;BME280;67497;53.058;21.618;2024-01-11T09:58:22;100642.22;;;-0.29;92.36
78223;BME280;67497;53.058;21.618;2024-01-11T10:00:23;100639.94;;;-0.19;92.02
78223;BME280;67497;53.058;21.618;2024-01-11T10:02:25;100642.78;;;-0.22;92.25
78223;BME280;67497;53.058;21.618;2024-01-11T10:04:27;100640.44;;;-0.11;92.01
78223;BME280;67497;53.058;21.618;2024-01-11T10:06:27;100648.03;;;-0.19;92.21
78223;BME280;67497;53.058;21.618;2024-01-11T10:08:29;100618.97;;;-0.30;92.10
78223;BME280;67497;53.058;21.618;2024-01-11T10:10:30;100641.66;;;-0.18;92.50
78223;BME280;67497;53.058;21.618;2024-01-11T10:12:32;100639.84;;;-0.18;92.56
78223;BME280;67497;53.058;21.618;2024-01-11T10:14:34;100633.44;;;-0.15;92.40
78223;BME280;67497;53.058;21.618;2024-01-11T10:16:34;100636.22;;;-0.17;92.29
78223;BME280;67497;53.058;21.618;2024-01-11T10:18:35;100649.44;;;-0.12;92.38
78223;BME280;67497;53.058;21.618;2024-01-11T10:20:37;100636.72;;;-0.09;92.10
78223;BME280;67497;53.058;21.618;2024-01-11T10:22:37;100649.13;;;-0.06;91.85